createdAt,value
2022-09-12T00:03:53.152Z,4.13
2022-09-12T00:08:57.568Z,3.55
2022-09-12T00:14:01.538Z,4.50
2022-09-12T00:19:05.605Z,4.47
2022-09-12T00:24:09.709Z,4.07
2022-09-12T00:29:20.491Z,3.85
2022-09-12T00:34:23.178Z,3.67
2022-09-12T00:39:25.918Z,4.75
2022-09-12T00:44:28.974Z,5.10
2022-09-12T00:49:50.191Z,4.00
2022-09-12T00:55:29.369Z,4.13
2022-09-12T01:00:32.296Z,4.82
2022-09-12T01:05:37.349Z,5.50
2022-09-12T01:10:41.177Z,5.80
2022-09-12T01:15:44.222Z,4.95
2022-09-12T01:21:03.978Z,3.95
2022-09-12T01:26:31.853Z,5.80
2022-09-12T01:32:01.924Z,5.28
2022-09-12T01:37:15.852Z,4.45
2022-09-12T01:42:24.526Z,5.97
2022-09-12T01:47:44.371Z,4.40
2022-09-12T01:52:56.900Z,6.15
2022-09-12T01:58:17.752Z,6.47
2022-09-12T02:03:34.226Z,2.65
2022-09-12T02:08:53.913Z,2.40
2022-09-12T02:14:07.968Z,6.03
2022-09-12T02:19:17.313Z,5.03
2022-09-12T02:24:21.336Z,5.47
2022-09-12T02:29:24.145Z,4.18
2022-09-12T02:34:46.335Z,4.35
2022-09-12T02:39:49.066Z,4.90
2022-09-12T02:44:53.481Z,5.07
2022-09-12T02:49:57.482Z,4.87
2022-09-12T02:55:00.558Z,5.07
2022-09-12T03:00:05.214Z,5.50
2022-09-12T03:05:52.617Z,6.27
2022-09-12T03:11:15.634Z,5.72
2022-09-12T03:16:33.395Z,5.47
2022-09-12T03:21:49.124Z,4.47
2022-09-12T03:27:00.729Z,3.95
2022-09-12T03:32:03.612Z,4.50
2022-09-12T03:37:08.971Z,3.80
2022-09-12T03:42:11.754Z,2.78
2022-09-12T03:47:14.474Z,3.00
2022-09-12T03:52:17.637Z,2.80
2022-09-12T03:57:21.487Z,1.58
2022-09-12T04:02:28.696Z,2.60
2022-09-12T04:07:31.448Z,2.47
2022-09-12T04:12:36.054Z,3.30
2022-09-12T04:17:38.929Z,3.60
2022-09-12T04:22:42.525Z,3.30
2022-09-12T04:32:53.430Z,3.30
2022-09-12T04:37:56.181Z,4.50
2022-09-12T04:43:01.799Z,2.65
2022-09-12T04:48:04.737Z,3.60
2022-09-12T04:53:07.933Z,3.38
2022-09-12T04:58:19.526Z,3.40
2022-09-12T05:03:25.226Z,3.60
2022-09-12T05:08:30.759Z,2.22
2022-09-12T05:13:34.243Z,2.70
2022-09-12T05:18:37.620Z,3.28
2022-09-12T05:23:43.393Z,4.18
2022-09-12T05:40:42.503Z,8.23
2022-09-12T05:45:45.475Z,8.55
2022-09-12T05:51:01.913Z,8.63
2022-09-12T05:56:12.212Z,9.00
2022-09-12T06:01:19.700Z,4.90
2022-09-12T06:06:24.845Z,1.27
2022-09-12T06:11:29.738Z,2.38
2022-09-12T06:16:34.097Z,1.92
2022-09-12T06:21:38.273Z,3.20
2022-09-12T06:26:41.057Z,1.58
2022-09-12T06:31:44.491Z,2.65
2022-09-12T06:36:53.947Z,2.30
2022-09-12T06:41:56.723Z,2.72
2022-09-12T06:47:09.295Z,1.67
2022-09-12T06:52:11.996Z,1.70
2022-09-12T06:57:15.106Z,1.85
2022-09-12T07:02:17.842Z,1.65
2022-09-12T07:07:20.881Z,3.55
2022-09-12T07:12:23.547Z,0.70
2022-09-12T07:17:26.216Z,0.45
2022-09-12T07:22:31.945Z,0.70
2022-09-12T07:27:34.854Z,0.60
2022-09-12T07:32:37.548Z,1.27
2022-09-12T07:37:40.337Z,0.90
2022-09-12T07:42:43.161Z,0.90
2022-09-12T07:47:45.865Z,0.90
2022-09-12T07:52:48.601Z,0.70
2022-09-12T07:57:52.731Z,0.70
2022-09-12T08:02:55.593Z,0.60
2022-09-12T08:07:58.399Z,0.75
2022-09-12T08:13:01.087Z,0.85
2022-09-12T08:18:03.938Z,0.38
2022-09-12T08:23:06.715Z,1.05
2022-09-12T08:28:09.501Z,0.80
2022-09-12T08:33:12.367Z,0.80
2022-09-12T08:38:15.055Z,0.40
2022-09-12T08:43:34.200Z,0.80
2022-09-12T08:48:37.311Z,0.30
2022-09-12T08:53:40.631Z,0.30
2022-09-12T08:58:45.345Z,0.35
2022-09-12T09:03:57.042Z,0.20
2022-09-12T09:09:05.336Z,0.40
2022-09-12T09:14:51.305Z,0.30
2022-09-12T09:20:41.614Z,0.50
2022-09-12T09:26:15.317Z,0.40
2022-09-12T09:31:23.448Z,0.50
2022-09-12T09:36:47.459Z,0.73
2022-09-12T09:42:10.849Z,0.63
2022-09-12T09:47:13.657Z,0.75
2022-09-12T09:52:18.109Z,0.80
2022-09-12T09:57:37.635Z,1.40
2022-09-12T10:02:47.197Z,0.95
2022-09-12T10:07:53.512Z,0.40
2022-09-12T10:13:09.469Z,0.60
2022-09-12T10:18:13.014Z,0.90
2022-09-12T10:23:38.278Z,0.70
2022-09-12T10:28:51.585Z,0.60
2022-09-12T10:33:55.044Z,1.10
2022-09-12T10:39:01.024Z,1.33
2022-09-12T10:44:14.801Z,1.20
2022-09-12T10:49:27.918Z,1.48
2022-09-12T10:54:31.221Z,1.20
2022-09-12T10:59:45.796Z,1.05
2022-09-12T11:04:57.505Z,1.50
2022-09-12T11:10:15.197Z,1.83
2022-09-12T11:15:35.761Z,1.92
2022-09-12T11:20:44.685Z,1.70
2022-09-12T11:25:52.986Z,1.30
2022-09-12T11:31:25.962Z,1.05
2022-09-12T11:36:57.935Z,0.90
2022-09-12T11:42:04.109Z,1.08
2022-09-12T11:47:08.756Z,2.47
2022-09-12T11:52:11.468Z,2.10
2022-09-12T11:57:36.136Z,6.65
2022-09-12T12:03:04.649Z,2.30
2022-09-12T12:08:07.487Z,1.80
2022-09-12T12:13:34.916Z,1.92
2022-09-12T12:18:39.112Z,1.70
2022-09-12T12:24:09.989Z,1.48
2022-09-12T12:29:18.855Z,1.70
2022-09-12T12:34:28.816Z,3.20
2022-09-12T12:39:34.503Z,2.55
2022-09-12T12:44:46.161Z,1.23
2022-09-12T12:50:11.116Z,0.95
2022-09-12T12:55:40.219Z,1.10
2022-09-12T13:00:43.485Z,1.63
2022-09-12T13:06:02.337Z,1.40
2022-09-12T13:11:32.804Z,1.63
2022-09-12T13:16:54.120Z,2.55
2022-09-12T13:22:00.586Z,2.28
2022-09-12T13:27:03.448Z,1.75
2022-09-12T13:32:07.363Z,1.50
2022-09-12T13:37:13.021Z,1.70
2022-09-12T13:42:50.072Z,1.95
2022-09-12T13:47:59.056Z,2.40
2022-09-12T13:53:13.680Z,2.00
2022-09-12T13:58:24.360Z,2.33
2022-09-12T14:03:47.622Z,3.55
2022-09-12T14:08:50.462Z,3.20
2022-09-12T14:13:53.645Z,2.67
2022-09-12T14:18:57.353Z,2.35
2022-09-12T14:24:01.159Z,2.63
2022-09-12T14:29:08.019Z,2.72
2022-09-12T14:34:20.848Z,2.47
2022-09-12T14:39:38.369Z,1.98
2022-09-12T14:44:41.906Z,1.92
2022-09-12T14:49:47.359Z,2.10
2022-09-12T15:00:40.944Z,1.30
2022-09-12T15:05:50.123Z,1.13
2022-09-12T15:10:53.133Z,1.38
2022-09-12T15:15:58.085Z,1.20
2022-09-12T15:21:06.514Z,1.20
2022-09-12T15:26:16.051Z,1.67
2022-09-12T15:31:27.325Z,1.20
2022-09-12T15:36:30.389Z,1.20
2022-09-12T15:41:43.793Z,1.30
2022-09-12T15:46:49.529Z,1.30
2022-09-12T15:51:53.990Z,1.00
2022-09-12T15:56:59.856Z,1.20
2022-09-12T16:02:10.886Z,1.00
2022-09-12T16:07:13.693Z,1.00
2022-09-12T16:12:16.499Z,0.95
2022-09-12T16:17:24.941Z,1.10
2022-09-12T16:22:28.148Z,0.98
2022-09-12T16:27:31.711Z,1.40
2022-09-12T16:32:34.763Z,0.95
2022-09-12T16:37:37.607Z,1.17
2022-09-12T16:42:43.636Z,2.10
2022-09-12T16:47:46.726Z,2.13
2022-09-12T16:52:49.459Z,3.25
2022-09-12T16:57:52.311Z,2.90
2022-09-12T17:02:55.056Z,1.70
2022-09-12T17:07:57.826Z,2.40
2022-09-12T17:13:00.569Z,1.70
2022-09-12T17:18:03.303Z,0.80
2022-09-12T17:23:09.629Z,1.08
2022-09-12T17:28:12.680Z,0.95
2022-09-12T17:33:15.854Z,0.75
2022-09-12T17:38:24.564Z,0.90
2022-09-12T17:43:27.963Z,0.70
2022-09-12T17:48:31.227Z,0.70
2022-09-12T17:53:34.950Z,0.70
2022-09-12T17:58:38.213Z,0.80
2022-09-12T18:03:40.956Z,0.90
2022-09-12T18:08:43.764Z,0.80
2022-09-12T18:13:46.741Z,0.60
2022-09-12T18:18:51.398Z,0.90
2022-09-12T18:23:54.348Z,0.80
2022-09-12T18:28:57.716Z,0.60
2022-09-12T18:34:01.370Z,0.80
2022-09-12T18:39:04.099Z,0.90
2022-09-12T18:44:08.079Z,0.73
2022-09-12T18:49:11.400Z,1.17
2022-09-12T18:54:14.952Z,1.00
2022-09-12T18:59:17.853Z,1.48
2022-09-12T19:04:20.668Z,1.05
2022-09-12T19:09:23.655Z,0.90
2022-09-12T19:14:27.274Z,0.90
2022-09-12T19:19:30.085Z,0.80
2022-09-12T19:24:33.081Z,0.60
2022-09-12T19:29:35.854Z,0.82
2022-09-12T19:34:38.547Z,0.60
2022-09-12T19:39:44.459Z,0.70
2022-09-12T19:44:47.322Z,0.80
2022-09-12T19:49:50.032Z,0.80
2022-09-12T19:54:52.741Z,0.90
2022-09-12T19:59:55.899Z,0.75
2022-09-12T20:04:58.729Z,0.88
2022-09-12T20:10:01.535Z,0.90
2022-09-12T20:15:06.454Z,0.67
2022-09-12T20:20:10.775Z,0.63
2022-09-12T20:25:13.488Z,0.70
2022-09-12T20:30:16.667Z,0.60
2022-09-12T20:35:19.507Z,0.80
2022-09-12T20:40:22.298Z,0.88
2022-09-12T20:45:25.148Z,0.70
2022-09-12T20:50:28.181Z,0.60
2022-09-12T20:55:30.910Z,0.60
2022-09-12T21:00:33.541Z,0.57
2022-09-12T21:05:36.265Z,0.50
2022-09-12T21:10:42.274Z,0.57
2022-09-12T21:15:45.551Z,0.50
2022-09-12T21:20:55.301Z,0.50
2022-09-12T21:25:59.610Z,0.40
2022-09-12T21:31:02.348Z,0.50
2022-09-12T21:36:06.221Z,0.60
2022-09-12T21:41:16.211Z,0.60
2022-09-12T21:46:18.996Z,0.50
2022-09-12T21:51:22.211Z,0.60
2022-09-12T21:56:24.849Z,0.50
2022-09-12T22:01:27.668Z,0.73
2022-09-12T22:06:30.490Z,0.70
2022-09-12T22:11:33.382Z,0.50
2022-09-12T22:16:36.071Z,0.60
2022-09-12T22:21:58.656Z,0.50
2022-09-12T22:27:04.132Z,0.80
2022-09-12T22:37:11.637Z,0.80
2022-09-12T22:42:14.767Z,0.60
2022-09-12T22:47:20.351Z,0.60
2022-09-12T22:52:23.641Z,0.55
2022-09-12T22:57:26.324Z,0.73
2022-09-12T23:02:30.041Z,1.20
2022-09-12T23:07:33.563Z,0.80
2022-09-12T23:12:36.332Z,0.80
2022-09-12T23:17:39.219Z,0.90
2022-09-12T23:22:42.090Z,0.80
2022-09-12T23:27:44.908Z,0.70
2022-09-12T23:32:50.547Z,1.15
2022-09-12T23:37:53.239Z,0.70
2022-09-12T23:42:56.271Z,1.00
2022-09-12T23:47:59.282Z,0.80
2022-09-12T23:53:02.009Z,1.00
2022-09-12T23:58:04.748Z,0.90
